Terminal Aerodrome Forecast
Issued by NWS Atlanta, GA

Home | Current Version | Previous Version | Text Only | Print | Product List | Glossary On
Versions: 1 2 3 4 5 6 7 8 9 10 11 12 13 14 15 16 17 18 19 20 21 22 23 24
000
FTUS42 KFFC 281730
TAFMCN
TAF
KMCN 281730Z 2818/2918 28008KT P6SM VCSH SCT040 SCT120 BKN250
      TEMPO 2819/2823 VRB18G24KT 4SM TSRA BKN030CB
     FM290200 25005KT P6SM VCSH BKN080
     FM290800 26004KT 4SM BR BKN010 BKN080
     FM291400 28008KT P6SM BKN025 PROB30 2914/2918 4SM TSRA
      BKN020CB=

USA.gov is the U.S. government's official web portal to all federal, state and local government web resources and services.